sensor_id;sensor_type;location;lat;lon;timestamp;temperature;humidity
46754;DHT22;32500;50.620;3.400;2023-05-14T00:01:20;18.30;83.30
46754;DHT22;32500;50.620;3.400;2023-05-14T00:03:46;18.30;83.30
46754;DHT22;32500;50.620;3.400;2023-05-14T00:06:11;18.20;82.90
46754;DHT22;32500;50.620;3.400;2023-05-14T00:08:37;18.20;82.40
46754;DHT22;32500;50.620;3.400;2023-05-14T00:11:03;18.20;82.60
46754;DHT22;32500;50.620;3.400;2023-05-14T00:13:28;18.20;82.80
46754;DHT22;32500;50.620;3.400;2023-05-14T00:15:54;18.20;83.20
46754;DHT22;32500;50.620;3.400;2023-05-14T00:18:20;18.20;82.50
46754;DHT22;32500;50.620;3.400;2023-05-14T00:20:45;18.20;82.80
46754;DHT22;32500;50.620;3.400;2023-05-14T00:23:11;18.20;83.20
46754;DHT22;32500;50.620;3.400;2023-05-14T00:25:37;18.20;83.10
46754;DHT22;32500;50.620;3.400;2023-05-14T00:28:03;18.20;83.00
46754;DHT22;32500;50.620;3.400;2023-05-14T00:30:28;18.20;83.10
46754;DHT22;32500;50.620;3.400;2023-05-14T00:32:54;18.20;82.50
46754;DHT22;32500;50.620;3.400;2023-05-14T00:35:20;18.10;82.50
46754;DHT22;32500;50.620;3.400;2023-05-14T00:37:46;18.10;82.70
46754;DHT22;32500;50.620;3.400;2023-05-14T00:40:12;18.10;82.80
46754;DHT22;32500;50.620;3.400;2023-05-14T00:42:41;18.10;83.20
46754;DHT22;32500;50.620;3.400;2023-05-14T00:45:07;18.10;82.80
46754;DHT22;32500;50.620;3.400;2023-05-14T00:47:32;18.10;83.00
46754;DHT22;32500;50.620;3.400;2023-05-14T00:50:02;18.10;82.90
46754;DHT22;32500;50.620;3.400;2023-05-14T00:52:28;18.10;82.30
46754;DHT22;32500;50.620;3.400;2023-05-14T00:54:54;18.10;82.10
46754;DHT22;32500;50.620;3.400;2023-05-14T00:57:20;18.00;82.30
46754;DHT22;32500;50.620;3.400;2023-05-14T00:59:46;18.10;81.80
46754;DHT22;32500;50.620;3.400;2023-05-14T01:02:12;18.00;82.10
46754;DHT22;32500;50.620;3.400;2023-05-14T01:04:38;18.10;82.50
46754;DHT22;32500;50.620;3.400;2023-05-14T01:10:08;18.00;82.40
46754;DHT22;32500;50.620;3.400;2023-05-14T01:12:45;18.00;82.30
46754;DHT22;32500;50.620;3.400;2023-05-14T01:15:37;18.00;82.20
46754;DHT22;32500;50.620;3.400;2023-05-14T01:18:08;18.00;82.40
46754;DHT22;32500;50.620;3.400;2023-05-14T01:20:35;18.00;82.40
46754;DHT22;32500;50.620;3.400;2023-05-14T01:23:01;18.00;83.50
46754;DHT22;32500;50.620;3.400;2023-05-14T01:25:29;18.00;82.40
46754;DHT22;32500;50.620;3.400;2023-05-14T01:31:04;18.00;82.90
46754;DHT22;32500;50.620;3.400;2023-05-14T01:33:32;18.00;83.00
46754;DHT22;32500;50.620;3.400;2023-05-14T01:36:00;18.00;82.90
46754;DHT22;32500;50.620;3.400;2023-05-14T01:38:26;18.00;82.80
46754;DHT22;32500;50.620;3.400;2023-05-14T01:40:55;17.90;82.80
46754;DHT22;32500;50.620;3.400;2023-05-14T01:43:22;18.00;82.60
46754;DHT22;32500;50.620;3.400;2023-05-14T01:45:48;18.00;82.70
46754;DHT22;32500;50.620;3.400;2023-05-14T01:48:14;17.90;82.60
46754;DHT22;32500;50.620;3.400;2023-05-14T01:50:39;18.00;82.70
46754;DHT22;32500;50.620;3.400;2023-05-14T01:53:05;17.90;82.30
46754;DHT22;32500;50.620;3.400;2023-05-14T01:55:31;17.90;82.60
46754;DHT22;32500;50.620;3.400;2023-05-14T01:57:57;17.90;82.50
46754;DHT22;32500;50.620;3.400;2023-05-14T02:00:23;17.90;82.50
46754;DHT22;32500;50.620;3.400;2023-05-14T02:02:52;17.90;82.50
46754;DHT22;32500;50.620;3.400;2023-05-14T02:05:17;17.90;82.10
46754;DHT22;32500;50.620;3.400;2023-05-14T02:07:43;17.90;82.20
46754;DHT22;32500;50.620;3.400;2023-05-14T02:10:09;17.80;82.20
46754;DHT22;32500;50.620;3.400;2023-05-14T02:12:35;17.90;82.10
46754;DHT22;32500;50.620;3.400;2023-05-14T02:15:04;17.90;82.20
46754;DHT22;32500;50.620;3.400;2023-05-14T02:17:30;17.90;82.50
46754;DHT22;32500;50.620;3.400;2023-05-14T02:19:56;17.80;82.40
46754;DHT22;32500;50.620;3.400;2023-05-14T02:22:21;17.90;82.60
46754;DHT22;32500;50.620;3.400;2023-05-14T02:24:47;17.90;82.60
46754;DHT22;32500;50.620;3.400;2023-05-14T02:27:14;17.90;82.30
46754;DHT22;32500;50.620;3.400;2023-05-14T02:29:39;17.80;82.50
46754;DHT22;32500;50.620;3.400;2023-05-14T02:32:05;17.90;82.50
46754;DHT22;32500;50.620;3.400;2023-05-14T02:34:31;17.80;82.70
46754;DHT22;32500;50.620;3.400;2023-05-14T02:36:58;17.80;82.30
46754;DHT22;32500;50.620;3.400;2023-05-14T02:39:24;17.80;82.20
46754;DHT22;32500;50.620;3.400;2023-05-14T02:41:50;17.80;82.20
46754;DHT22;32500;50.620;3.400;2023-05-14T02:44:15;17.80;82.50
46754;DHT22;32500;50.620;3.400;2023-05-14T02:46:42;17.80;82.60
46754;DHT22;32500;50.620;3.400;2023-05-14T02:49:08;17.80;82.70
46754;DHT22;32500;50.620;3.400;2023-05-14T02:51:33;17.80;82.70
46754;DHT22;32500;50.620;3.400;2023-05-14T02:53:59;17.80;82.40
46754;DHT22;32500;50.620;3.400;2023-05-14T02:56:24;17.80;82.50
46754;DHT22;32500;50.620;3.400;2023-05-14T02:58:50;17.80;82.50
46754;DHT22;32500;50.620;3.400;2023-05-14T03:01:16;17.80;82.40
46754;DHT22;32500;50.620;3.400;2023-05-14T03:03:43;17.80;82.50
46754;DHT22;32500;50.620;3.400;2023-05-14T03:06:08;17.80;82.70
46754;DHT22;32500;50.620;3.400;2023-05-14T03:08:34;17.80;82.50
46754;DHT22;32500;50.620;3.400;2023-05-14T03:11:00;17.70;82.10
46754;DHT22;32500;50.620;3.400;2023-05-14T03:13:25;17.80;82.50
46754;DHT22;32500;50.620;3.400;2023-05-14T03:15:51;17.70;82.10
46754;DHT22;32500;50.620;3.400;2023-05-14T03:18:19;17.70;82.60
46754;DHT22;32500;50.620;3.400;2023-05-14T03:20:45;17.70;82.20
46754;DHT22;32500;50.620;3.400;2023-05-14T03:23:11;17.70;82.30
46754;DHT22;32500;50.620;3.400;2023-05-14T03:25:36;17.70;82.30
46754;DHT22;32500;50.620;3.400;2023-05-14T03:28:02;17.70;82.40
46754;DHT22;32500;50.620;3.400;2023-05-14T03:30:28;17.70;82.20
46754;DHT22;32500;50.620;3.400;2023-05-14T03:32:54;17.70;82.20
46754;DHT22;32500;50.620;3.400;2023-05-14T03:35:19;17.70;82.50
46754;DHT22;32500;50.620;3.400;2023-05-14T03:37:45;17.70;82.40
46754;DHT22;32500;50.620;3.400;2023-05-14T03:40:11;17.70;82.20
46754;DHT22;32500;50.620;3.400;2023-05-14T03:42:37;17.70;82.50
46754;DHT22;32500;50.620;3.400;2023-05-14T03:45:03;17.70;82.50
46754;DHT22;32500;50.620;3.400;2023-05-14T03:47:28;17.70;82.40
46754;DHT22;32500;50.620;3.400;2023-05-14T03:49:55;17.70;82.20
46754;DHT22;32500;50.620;3.400;2023-05-14T03:52:21;17.70;82.70
46754;DHT22;32500;50.620;3.400;2023-05-14T03:54:46;17.60;82.40
46754;DHT22;32500;50.620;3.400;2023-05-14T03:57:12;17.60;82.40
46754;DHT22;32500;50.620;3.400;2023-05-14T03:59:37;17.60;81.90
46754;DHT22;32500;50.620;3.400;2023-05-14T04:02:03;17.60;82.30
46754;DHT22;32500;50.620;3.400;2023-05-14T04:04:29;17.60;82.30
46754;DHT22;32500;50.620;3.400;2023-05-14T04:06:54;17.60;82.40
46754;DHT22;32500;50.620;3.400;2023-05-14T04:09:20;17.60;82.30
46754;DHT22;32500;50.620;3.400;2023-05-14T04:11:46;17.60;82.20
46754;DHT22;32500;50.620;3.400;2023-05-14T04:14:11;17.60;82.30
46754;DHT22;32500;50.620;3.400;2023-05-14T04:16:37;17.60;82.10
46754;DHT22;32500;50.620;3.400;2023-05-14T04:19:03;17.60;82.10
46754;DHT22;32500;50.620;3.400;2023-05-14T04:21:31;17.60;82.30
46754;DHT22;32500;50.620;3.400;2023-05-14T04:23:57;17.60;82.20
46754;DHT22;32500;50.620;3.400;2023-05-14T04:26:22;17.60;82.50
46754;DHT22;32500;50.620;3.400;2023-05-14T04:28:48;17.60;82.30
46754;DHT22;32500;50.620;3.400;2023-05-14T04:31:14;17.60;82.30
46754;DHT22;32500;50.620;3.400;2023-05-14T04:33:40;17.60;82.30
46754;DHT22;32500;50.620;3.400;2023-05-14T04:36:06;17.60;82.10
46754;DHT22;32500;50.620;3.400;2023-05-14T04:38:32;17.60;82.30
46754;DHT22;32500;50.620;3.400;2023-05-14T04:40:58;17.60;82.30
46754;DHT22;32500;50.620;3.400;2023-05-14T04:43:24;17.60;82.40
46754;DHT22;32500;50.620;3.400;2023-05-14T04:45:50;17.60;82.10
46754;DHT22;32500;50.620;3.400;2023-05-14T04:48:17;17.60;82.10
46754;DHT22;32500;50.620;3.400;2023-05-14T04:50:42;17.50;81.90
46754;DHT22;32500;50.620;3.400;2023-05-14T04:53:09;17.60;82.30
46754;DHT22;32500;50.620;3.400;2023-05-14T04:55:34;17.50;81.80
46754;DHT22;32500;50.620;3.400;2023-05-14T04:58:00;17.50;82.10
46754;DHT22;32500;50.620;3.400;2023-05-14T05:00:26;17.50;81.90
46754;DHT22;32500;50.620;3.400;2023-05-14T05:02:53;17.50;81.70
46754;DHT22;32500;50.620;3.400;2023-05-14T05:05:18;17.50;82.30
46754;DHT22;32500;50.620;3.400;2023-05-14T05:07:44;17.50;82.40
46754;DHT22;32500;50.620;3.400;2023-05-14T05:10:10;17.50;82.30
46754;DHT22;32500;50.620;3.400;2023-05-14T05:12:35;17.50;81.80
46754;DHT22;32500;50.620;3.400;2023-05-14T05:15:01;17.50;81.90
46754;DHT22;32500;50.620;3.400;2023-05-14T05:17:28;17.50;81.70
46754;DHT22;32500;50.620;3.400;2023-05-14T05:19:53;17.50;81.80
46754;DHT22;32500;50.620;3.400;2023-05-14T05:22:19;17.50;82.30
46754;DHT22;32500;50.620;3.400;2023-05-14T05:24:45;17.50;82.00
46754;DHT22;32500;50.620;3.400;2023-05-14T05:27:10;17.50;81.90
46754;DHT22;32500;50.620;3.400;2023-05-14T05:29:36;17.40;81.80
46754;DHT22;32500;50.620;3.400;2023-05-14T05:32:02;17.50;82.10
46754;DHT22;32500;50.620;3.400;2023-05-14T05:34:28;17.50;82.00
46754;DHT22;32500;50.620;3.400;2023-05-14T05:36:53;17.40;81.80
46754;DHT22;32500;50.620;3.400;2023-05-14T05:39:19;17.50;82.10
46754;DHT22;32500;50.620;3.400;2023-05-14T05:41:45;17.40;81.90
46754;DHT22;32500;50.620;3.400;2023-05-14T05:44:10;17.50;82.20
46754;DHT22;32500;50.620;3.400;2023-05-14T05:46:36;17.40;81.70
46754;DHT22;32500;50.620;3.400;2023-05-14T05:49:02;17.40;81.50
46754;DHT22;32500;50.620;3.400;2023-05-14T05:51:27;17.40;81.60
46754;DHT22;32500;50.620;3.400;2023-05-14T05:53:53;17.40;81.60
46754;DHT22;32500;50.620;3.400;2023-05-14T05:56:19;17.40;81.50
46754;DHT22;32500;50.620;3.400;2023-05-14T05:58:45;17.40;81.60
46754;DHT22;32500;50.620;3.400;2023-05-14T06:01:11;17.40;82.50
46754;DHT22;32500;50.620;3.400;2023-05-14T06:03:36;17.40;81.60
46754;DHT22;32500;50.620;3.400;2023-05-14T06:06:02;17.40;81.80
46754;DHT22;32500;50.620;3.400;2023-05-14T06:08:27;17.40;81.80
46754;DHT22;32500;50.620;3.400;2023-05-14T06:10:53;17.40;81.80
46754;DHT22;32500;50.620;3.400;2023-05-14T06:13:19;17.40;81.80
46754;DHT22;32500;50.620;3.400;2023-05-14T06:15:44;17.40;81.50
46754;DHT22;32500;50.620;3.400;2023-05-14T06:18:10;17.40;81.50
46754;DHT22;32500;50.620;3.400;2023-05-14T06:20:36;17.40;81.20
46754;DHT22;32500;50.620;3.400;2023-05-14T06:23:01;17.40;81.20
46754;DHT22;32500;50.620;3.400;2023-05-14T06:25:27;17.40;80.80
46754;DHT22;32500;50.620;3.400;2023-05-14T06:27:52;17.40;81.20
46754;DHT22;32500;50.620;3.400;2023-05-14T06:30:18;17.40;81.70
46754;DHT22;32500;50.620;3.400;2023-05-14T06:32:44;17.40;81.50
46754;DHT22;32500;50.620;3.400;2023-05-14T06:35:09;17.30;81.20
46754;DHT22;32500;50.620;3.400;2023-05-14T06:37:35;17.40;81.40
46754;DHT22;32500;50.620;3.400;2023-05-14T06:40:01;17.40;81.40
46754;DHT22;32500;50.620;3.400;2023-05-14T06:42:28;17.30;81.10
46754;DHT22;32500;50.620;3.400;2023-05-14T06:44:53;17.40;81.20
46754;DHT22;32500;50.620;3.400;2023-05-14T06:47:19;17.30;81.10
46754;DHT22;32500;50.620;3.400;2023-05-14T06:49:45;17.30;81.20
46754;DHT22;32500;50.620;3.400;2023-05-14T06:52:10;17.40;81.40
46754;DHT22;32500;50.620;3.400;2023-05-14T06:54:36;17.40;81.30
46754;DHT22;32500;50.620;3.400;2023-05-14T06:57:02;17.40;80.80
46754;DHT22;32500;50.620;3.400;2023-05-14T06:59:28;17.40;80.90
46754;DHT22;32500;50.620;3.400;2023-05-14T07:01:54;17.40;81.30
46754;DHT22;32500;50.620;3.400;2023-05-14T07:04:19;17.40;81.60
46754;DHT22;32500;50.620;3.400;2023-05-14T07:06:45;17.40;81.50
46754;DHT22;32500;50.620;3.400;2023-05-14T07:09:11;17.40;81.20
46754;DHT22;32500;50.620;3.400;2023-05-14T07:11:37;17.40;81.30
46754;DHT22;32500;50.620;3.400;2023-05-14T07:14:03;17.40;81.00
46754;DHT22;32500;50.620;3.400;2023-05-14T07:16:28;17.40;81.80
46754;DHT22;32500;50.620;3.400;2023-05-14T07:18:54;17.40;81.90
46754;DHT22;32500;50.620;3.400;2023-05-14T07:21:20;17.40;81.90
46754;DHT22;32500;50.620;3.400;2023-05-14T07:23:46;17.40;82.10
46754;DHT22;32500;50.620;3.400;2023-05-14T07:26:11;17.50;82.50
46754;DHT22;32500;50.620;3.400;2023-05-14T07:28:37;17.50;82.20
46754;DHT22;32500;50.620;3.400;2023-05-14T07:31:02;17.50;82.50
46754;DHT22;32500;50.620;3.400;2023-05-14T07:33:36;17.50;82.60
46754;DHT22;32500;50.620;3.400;2023-05-14T07:36:02;17.50;82.40
46754;DHT22;32500;50.620;3.400;2023-05-14T07:38:28;17.60;82.40
46754;DHT22;32500;50.620;3.400;2023-05-14T07:40:54;17.60;82.30
46754;DHT22;32500;50.620;3.400;2023-05-14T07:43:19;17.60;82.30
46754;DHT22;32500;50.620;3.400;2023-05-14T07:45:45;17.50;82.10
46754;DHT22;32500;50.620;3.400;2023-05-14T07:48:11;17.60;81.60
46754;DHT22;32500;50.620;3.400;2023-05-14T07:50:36;17.60;82.10
46754;DHT22;32500;50.620;3.400;2023-05-14T07:53:02;17.60;82.00
46754;DHT22;32500;50.620;3.400;2023-05-14T07:55:28;17.60;81.70
46754;DHT22;32500;50.620;3.400;2023-05-14T07:57:53;17.60;82.00
46754;DHT22;32500;50.620;3.400;2023-05-14T08:00:19;17.60;82.10
46754;DHT22;32500;50.620;3.400;2023-05-14T08:02:45;17.60;82.30
46754;DHT22;32500;50.620;3.400;2023-05-14T08:05:10;17.60;82.10
46754;DHT22;32500;50.620;3.400;2023-05-14T08:07:36;17.60;82.00
46754;DHT22;32500;50.620;3.400;2023-05-14T08:10:02;17.60;81.50
46754;DHT22;32500;50.620;3.400;2023-05-14T08:12:27;17.60;82.00
46754;DHT22;32500;50.620;3.400;2023-05-14T08:14:54;17.60;81.70
46754;DHT22;32500;50.620;3.400;2023-05-14T08:17:20;17.60;81.80
46754;DHT22;32500;50.620;3.400;2023-05-14T08:19:46;17.60;81.70
46754;DHT22;32500;50.620;3.400;2023-05-14T08:22:12;17.60;81.10
46754;DHT22;32500;50.620;3.400;2023-05-14T08:24:38;17.60;81.00
46754;DHT22;32500;50.620;3.400;2023-05-14T08:27:03;17.60;80.90
46754;DHT22;32500;50.620;3.400;2023-05-14T08:29:29;17.60;81.40
46754;DHT22;32500;50.620;3.400;2023-05-14T08:31:55;17.60;81.70
46754;DHT22;32500;50.620;3.400;2023-05-14T08:34:21;17.60;82.20
46754;DHT22;32500;50.620;3.400;2023-05-14T08:36:47;17.60;82.50
46754;DHT22;32500;50.620;3.400;2023-05-14T08:39:12;17.70;82.80
46754;DHT22;32500;50.620;3.400;2023-05-14T08:41:39;17.70;83.60
46754;DHT22;32500;50.620;3.400;2023-05-14T08:44:17;17.70;84.30
46754;DHT22;32500;50.620;3.400;2023-05-14T08:46:43;17.70;84.10
46754;DHT22;32500;50.620;3.400;2023-05-14T08:51:47;17.70;84.80
46754;DHT22;32500;50.620;3.400;2023-05-14T08:54:15;17.70;85.00
46754;DHT22;32500;50.620;3.400;2023-05-14T08:56:43;17.70;87.20
46754;DHT22;32500;50.620;3.400;2023-05-14T08:59:10;17.70;88.30
46754;DHT22;32500;50.620;3.400;2023-05-14T09:01:37;17.80;89.50
46754;DHT22;32500;50.620;3.400;2023-05-14T09:04:04;17.80;90.60
46754;DHT22;32500;50.620;3.400;2023-05-14T09:06:36;17.80;90.20
46754;DHT22;32500;50.620;3.400;2023-05-14T09:09:03;17.80;90.10
46754;DHT22;32500;50.620;3.400;2023-05-14T09:11:29;17.80;90.50
46754;DHT22;32500;50.620;3.400;2023-05-14T09:13:54;17.80;90.60
46754;DHT22;32500;50.620;3.400;2023-05-14T09:16:20;17.80;91.00
46754;DHT22;32500;50.620;3.400;2023-05-14T09:18:46;17.80;91.50
46754;DHT22;32500;50.620;3.400;2023-05-14T09:21:13;17.80;91.70
46754;DHT22;32500;50.620;3.400;2023-05-14T09:23:41;17.80;91.70
46754;DHT22;32500;50.620;3.400;2023-05-14T09:26:08;17.80;92.10
46754;DHT22;32500;50.620;3.400;2023-05-14T09:28:34;17.90;92.20
46754;DHT22;32500;50.620;3.400;2023-05-14T09:31:01;17.90;92.80
46754;DHT22;32500;50.620;3.400;2023-05-14T09:33:28;17.90;92.60
46754;DHT22;32500;50.620;3.400;2023-05-14T09:35:58;17.90;92.50
46754;DHT22;32500;50.620;3.400;2023-05-14T09:38:31;17.90;92.50
46754;DHT22;32500;50.620;3.400;2023-05-14T09:40:58;17.90;92.40
46754;DHT22;32500;50.620;3.400;2023-05-14T09:43:25;17.90;92.00
46754;DHT22;32500;50.620;3.400;2023-05-14T09:45:51;17.90;91.50
46754;DHT22;32500;50.620;3.400;2023-05-14T09:48:17;17.90;90.90
46754;DHT22;32500;50.620;3.400;2023-05-14T09:50:43;17.90;90.50
46754;DHT22;32500;50.620;3.400;2023-05-14T09:53:10;17.90;90.10
46754;DHT22;32500;50.620;3.400;2023-05-14T09:55:36;17.90;89.60
46754;DHT22;32500;50.620;3.400;2023-05-14T09:58:03;17.90;88.70
46754;DHT22;32500;50.620;3.400;2023-05-14T10:00:32;17.90;88.60
46754;DHT22;32500;50.620;3.400;2023-05-14T10:02:58;17.90;88.60
46754;DHT22;32500;50.620;3.400;2023-05-14T10:05:27;17.90;88.20
46754;DHT22;32500;50.620;3.400;2023-05-14T10:07:56;17.90;88.30
46754;DHT22;32500;50.620;3.400;2023-05-14T10:10:25;17.90;87.90
46754;DHT22;32500;50.620;3.400;2023-05-14T10:13:03;17.90;88.40
46754;DHT22;32500;50.620;3.400;2023-05-14T10:15:33;17.90;88.20
46754;DHT22;32500;50.620;3.400;2023-05-14T10:18:05;18.00;87.80
46754;DHT22;32500;50.620;3.400;2023-05-14T10:20:32;18.00;87.10
46754;DHT22;32500;50.620;3.400;2023-05-14T10:22:59;18.00;86.70
46754;DHT22;32500;50.620;3.400;2023-05-14T10:25:25;18.00;86.90
46754;DHT22;32500;50.620;3.400;2023-05-14T10:27:51;18.00;86.90
46754;DHT22;32500;50.620;3.400;2023-05-14T10:30:20;18.00;86.50
46754;DHT22;32500;50.620;3.400;2023-05-14T10:32:47;18.00;86.80
46754;DHT22;32500;50.620;3.400;2023-05-14T10:35:17;18.00;86.70
46754;DHT22;32500;50.620;3.400;2023-05-14T10:37:45;18.00;86.70
46754;DHT22;32500;50.620;3.400;2023-05-14T10:40:12;18.00;86.70
46754;DHT22;32500;50.620;3.400;2023-05-14T10:42:38;18.00;86.50
46754;DHT22;32500;50.620;3.400;2023-05-14T10:45:12;18.00;86.60
46754;DHT22;32500;50.620;3.400;2023-05-14T10:47:41;18.00;86.10
46754;DHT22;32500;50.620;3.400;2023-05-14T10:50:09;18.00;86.30
46754;DHT22;32500;50.620;3.400;2023-05-14T10:52:35;18.00;86.10
46754;DHT22;32500;50.620;3.400;2023-05-14T10:55:03;18.00;86.00
46754;DHT22;32500;50.620;3.400;2023-05-14T10:57:33;18.00;85.80
46754;DHT22;32500;50.620;3.400;2023-05-14T11:00:00;18.00;85.80
46754;DHT22;32500;50.620;3.400;2023-05-14T11:02:33;18.00;85.80
46754;DHT22;32500;50.620;3.400;2023-05-14T11:05:03;18.00;85.80
46754;DHT22;32500;50.620;3.400;2023-05-14T11:07:40;18.10;86.00
46754;DHT22;32500;50.620;3.400;2023-05-14T11:10:19;18.10;86.00
46754;DHT22;32500;50.620;3.400;2023-05-14T11:12:51;18.00;85.90
46754;DHT22;32500;50.620;3.400;2023-05-14T11:15:19;18.00;85.80
46754;DHT22;32500;50.620;3.400;2023-05-14T11:17:46;18.10;85.80
46754;DHT22;32500;50.620;3.400;2023-05-14T11:20:13;18.10;85.80
46754;DHT22;32500;50.620;3.400;2023-05-14T11:22:40;18.10;85.80
46754;DHT22;32500;50.620;3.400;2023-05-14T11:25:07;18.10;85.80
46754;DHT22;32500;50.620;3.400;2023-05-14T11:27:34;18.10;85.80
46754;DHT22;32500;50.620;3.400;2023-05-14T11:30:00;18.10;85.70
46754;DHT22;32500;50.620;3.400;2023-05-14T11:32:26;18.10;85.70
46754;DHT22;32500;50.620;3.400;2023-05-14T11:34:52;18.10;85.70
46754;DHT22;32500;50.620;3.400;2023-05-14T11:37:18;18.10;85.50
46754;DHT22;32500;50.620;3.400;2023-05-14T11:39:52;18.10;85.40
46754;DHT22;32500;50.620;3.400;2023-05-14T11:42:18;18.10;85.30
46754;DHT22;32500;50.620;3.400;2023-05-14T11:44:51;18.10;85.20
46754;DHT22;32500;50.620;3.400;2023-05-14T11:47:19;18.10;85.10
46754;DHT22;32500;50.620;3.400;2023-05-14T11:49:46;18.10;85.20
46754;DHT22;32500;50.620;3.400;2023-05-14T11:52:13;18.10;84.90
46754;DHT22;32500;50.620;3.400;2023-05-14T11:54:42;18.10;84.90
46754;DHT22;32500;50.620;3.400;2023-05-14T11:57:10;18.10;84.80
46754;DHT22;32500;50.620;3.400;2023-05-14T11:59:37;18.10;84.70
46754;DHT22;32500;50.620;3.400;2023-05-14T12:02:04;18.10;84.60
46754;DHT22;32500;50.620;3.400;2023-05-14T12:04:30;18.10;84.60
46754;DHT22;32500;50.620;3.400;2023-05-14T12:06:58;18.10;84.40
46754;DHT22;32500;50.620;3.400;2023-05-14T12:09:24;18.20;84.30
46754;DHT22;32500;50.620;3.400;2023-05-14T12:11:51;18.20;83.90
46754;DHT22;32500;50.620;3.400;2023-05-14T12:14:21;18.20;84.20
46754;DHT22;32500;50.620;3.400;2023-05-14T12:16:48;18.20;84.20
46754;DHT22;32500;50.620;3.400;2023-05-14T12:19:16;18.20;84.40
46754;DHT22;32500;50.620;3.400;2023-05-14T12:21:43;18.20;84.60
46754;DHT22;32500;50.620;3.400;2023-05-14T12:24:14;18.20;84.30
46754;DHT22;32500;50.620;3.400;2023-05-14T12:26:44;18.20;85.30
46754;DHT22;32500;50.620;3.400;2023-05-14T12:29:12;18.30;85.90
46754;DHT22;32500;50.620;3.400;2023-05-14T12:31:45;18.30;87.10
46754;DHT22;32500;50.620;3.400;2023-05-14T12:34:11;18.30;87.50
46754;DHT22;32500;50.620;3.400;2023-05-14T12:36:37;18.30;87.60
46754;DHT22;32500;50.620;3.400;2023-05-14T12:39:03;18.30;88.10
46754;DHT22;32500;50.620;3.400;2023-05-14T12:41:30;18.30;90.00
46754;DHT22;32500;50.620;3.400;2023-05-14T12:43:56;18.40;90.20
46754;DHT22;32500;50.620;3.400;2023-05-14T12:46:22;18.40;89.90
46754;DHT22;32500;50.620;3.400;2023-05-14T12:48:48;18.40;89.20
46754;DHT22;32500;50.620;3.400;2023-05-14T12:51:14;18.40;88.10
46754;DHT22;32500;50.620;3.400;2023-05-14T12:53:40;18.40;87.60
46754;DHT22;32500;50.620;3.400;2023-05-14T12:56:06;18.50;87.50
46754;DHT22;32500;50.620;3.400;2023-05-14T12:58:32;18.50;87.40
46754;DHT22;32500;50.620;3.400;2023-05-14T13:00:58;18.50;87.00
46754;DHT22;32500;50.620;3.400;2023-05-14T13:03:24;18.50;86.60
46754;DHT22;32500;50.620;3.400;2023-05-14T13:05:51;18.50;86.30
46754;DHT22;32500;50.620;3.400;2023-05-14T13:08:17;18.50;85.40
46754;DHT22;32500;50.620;3.400;2023-05-14T13:10:46;18.50;84.90
46754;DHT22;32500;50.620;3.400;2023-05-14T13:13:13;18.50;84.10
46754;DHT22;32500;50.620;3.400;2023-05-14T13:15:39;18.60;84.30
46754;DHT22;32500;50.620;3.400;2023-05-14T13:18:05;18.50;78.80
46754;DHT22;32500;50.620;3.400;2023-05-14T13:20:31;18.50;75.20
46754;DHT22;32500;50.620;3.400;2023-05-14T13:22:57;18.50;72.90
46754;DHT22;32500;50.620;3.400;2023-05-14T13:25:23;18.50;72.60
46754;DHT22;32500;50.620;3.400;2023-05-14T13:27:48;18.50;71.50
46754;DHT22;32500;50.620;3.400;2023-05-14T13:30:17;18.50;73.10
46754;DHT22;32500;50.620;3.400;2023-05-14T13:32:43;18.50;72.80
46754;DHT22;32500;50.620;3.400;2023-05-14T13:35:09;18.50;70.10
46754;DHT22;32500;50.620;3.400;2023-05-14T13:37:35;18.50;71.00
46754;DHT22;32500;50.620;3.400;2023-05-14T13:40:01;18.50;73.20
46754;DHT22;32500;50.620;3.400;2023-05-14T13:42:29;18.60;71.30
46754;DHT22;32500;50.620;3.400;2023-05-14T13:44:54;18.60;71.70
46754;DHT22;32500;50.620;3.400;2023-05-14T13:47:20;18.60;72.70
46754;DHT22;32500;50.620;3.400;2023-05-14T13:49:46;18.60;70.90
46754;DHT22;32500;50.620;3.400;2023-05-14T13:52:12;18.60;70.60
46754;DHT22;32500;50.620;3.400;2023-05-14T13:54:37;18.70;70.30
46754;DHT22;32500;50.620;3.400;2023-05-14T13:57:03;18.60;67.70
46754;DHT22;32500;50.620;3.400;2023-05-14T13:59:29;18.60;65.90
46754;DHT22;32500;50.620;3.400;2023-05-14T14:01:54;18.70;68.80
46754;DHT22;32500;50.620;3.400;2023-05-14T14:04:20;18.70;68.50
46754;DHT22;32500;50.620;3.400;2023-05-14T14:06:47;18.70;66.30
46754;DHT22;32500;50.620;3.400;2023-05-14T14:09:13;18.70;67.10
46754;DHT22;32500;50.620;3.400;2023-05-14T14:11:39;18.70;65.90
46754;DHT22;32500;50.620;3.400;2023-05-14T14:14:05;18.70;65.20
46754;DHT22;32500;50.620;3.400;2023-05-14T14:16:31;18.70;66.00
46754;DHT22;32500;50.620;3.400;2023-05-14T14:18:57;18.70;66.40
46754;DHT22;32500;50.620;3.400;2023-05-14T14:21:22;18.70;65.30
46754;DHT22;32500;50.620;3.400;2023-05-14T14:23:48;18.70;66.00
46754;DHT22;32500;50.620;3.400;2023-05-14T14:26:13;18.80;65.50
46754;DHT22;32500;50.620;3.400;2023-05-14T14:28:39;18.80;64.50
46754;DHT22;32500;50.620;3.400;2023-05-14T14:31:05;18.80;64.20
46754;DHT22;32500;50.620;3.400;2023-05-14T14:33:31;18.80;64.10
46754;DHT22;32500;50.620;3.400;2023-05-14T14:35:56;18.80;64.70
46754;DHT22;32500;50.620;3.400;2023-05-14T14:38:23;18.80;65.10
46754;DHT22;32500;50.620;3.400;2023-05-14T14:40:49;18.80;65.80
46754;DHT22;32500;50.620;3.400;2023-05-14T14:43:15;18.80;64.20
46754;DHT22;32500;50.620;3.400;2023-05-14T14:45:41;18.80;63.60
46754;DHT22;32500;50.620;3.400;2023-05-14T14:48:30;18.80;63.30
46754;DHT22;32500;50.620;3.400;2023-05-14T14:50:56;18.80;65.40
46754;DHT22;32500;50.620;3.400;2023-05-14T14:53:22;18.80;65.00
46754;DHT22;32500;50.620;3.400;2023-05-14T14:55:48;18.80;65.90
46754;DHT22;32500;50.620;3.400;2023-05-14T14:58:16;18.90;67.10
46754;DHT22;32500;50.620;3.400;2023-05-14T15:00:42;18.80;67.90
46754;DHT22;32500;50.620;3.400;2023-05-14T15:03:08;18.90;69.00
46754;DHT22;32500;50.620;3.400;2023-05-14T15:05:34;18.90;69.30
46754;DHT22;32500;50.620;3.400;2023-05-14T15:08:00;18.90;70.00
46754;DHT22;32500;50.620;3.400;2023-05-14T15:10:29;18.90;70.40
46754;DHT22;32500;50.620;3.400;2023-05-14T15:12:56;18.90;70.60
46754;DHT22;32500;50.620;3.400;2023-05-14T15:15:22;18.90;70.00
46754;DHT22;32500;50.620;3.400;2023-05-14T15:17:48;18.90;70.80
46754;DHT22;32500;50.620;3.400;2023-05-14T15:20:14;18.90;71.20
46754;DHT22;32500;50.620;3.400;2023-05-14T15:22:39;19.00;70.90
46754;DHT22;32500;50.620;3.400;2023-05-14T15:25:05;18.90;70.70
46754;DHT22;32500;50.620;3.400;2023-05-14T15:27:31;18.90;70.70
46754;DHT22;32500;50.620;3.400;2023-05-14T15:29:57;18.90;70.90
46754;DHT22;32500;50.620;3.400;2023-05-14T15:32:23;19.00;71.40
46754;DHT22;32500;50.620;3.400;2023-05-14T15:34:50;18.90;71.20